sensor_id;sensor_type;location;lat;lon;timestamp;P1;durP1;ratioP1;P2;durP2;ratioP2
72319;SDS011;60269;52.502;16.732;2022-07-26T00:01:32;8.48;;;1.48;;
72319;SDS011;60269;52.502;16.732;2022-07-26T00:05:11;8.73;;;1.50;;
72319;SDS011;60269;52.502;16.732;2022-07-26T00:09:02;7.25;;;1.50;;
72319;SDS011;60269;52.502;16.732;2022-07-26T00:12:41;8.55;;;1.80;;
72319;SDS011;60269;52.502;16.732;2022-07-26T00:16:40;4.50;;;1.17;;
72319;SDS011;60269;52.502;16.732;2022-07-26T00:20:19;10.68;;;1.75;;
72319;SDS011;60269;52.502;16.732;2022-07-26T00:24:17;9.70;;;1.43;;
72319;SDS011;60269;52.502;16.732;2022-07-26T00:27:56;4.60;;;1.45;;
72319;SDS011;60269;52.502;16.732;2022-07-26T00:31:55;9.18;;;1.52;;
72319;SDS011;60269;52.502;16.732;2022-07-26T00:35:34;8.38;;;1.63;;
72319;SDS011;60269;52.502;16.732;2022-07-26T00:39:25;6.38;;;1.60;;
72319;SDS011;60269;52.502;16.732;2022-07-26T00:43:05;7.57;;;1.33;;
72319;SDS011;60269;52.502;16.732;2022-07-26T00:47:03;5.13;;;1.50;;
72319;SDS011;60269;52.502;16.732;2022-07-26T00:51:02;8.52;;;1.27;;
72319;SDS011;60269;52.502;16.732;2022-07-26T00:54:48;10.90;;;1.08;;
72319;SDS011;60269;52.502;16.732;2022-07-26T00:58:40;7.80;;;1.70;;
72319;SDS011;60269;52.502;16.732;2022-07-26T01:02:21;6.47;;;1.70;;
72319;SDS011;60269;52.502;16.732;2022-07-26T01:06:12;7.00;;;2.75;;
72319;SDS011;60269;52.502;16.732;2022-07-26T01:10:05;9.38;;;2.90;;
72319;SDS011;60269;52.502;16.732;2022-07-26T01:13:58;8.40;;;2.80;;
72319;SDS011;60269;52.502;16.732;2022-07-26T01:17:44;7.40;;;3.65;;
72319;SDS011;60269;52.502;16.732;2022-07-26T01:21:35;8.37;;;3.80;;
72319;SDS011;60269;52.502;16.732;2022-07-26T01:25:27;15.82;;;6.57;;
72319;SDS011;60269;52.502;16.732;2022-07-26T01:29:25;14.23;;;8.48;;
72319;SDS011;60269;52.502;16.732;2022-07-26T01:33:13;15.10;;;8.88;;
72319;SDS011;60269;52.502;16.732;2022-07-26T01:37:04;14.65;;;9.13;;
72319;SDS011;60269;52.502;16.732;2022-07-26T01:40:50;14.60;;;9.33;;
72319;SDS011;60269;52.502;16.732;2022-07-26T01:44:34;15.65;;;9.07;;
72319;SDS011;60269;52.502;16.732;2022-07-26T01:48:20;15.43;;;9.80;;
72319;SDS011;60269;52.502;16.732;2022-07-26T01:52:18;16.23;;;9.30;;
72319;SDS011;60269;52.502;16.732;2022-07-26T01:55:57;15.93;;;9.63;;
72319;SDS011;60269;52.502;16.732;2022-07-26T01:59:48;15.93;;;9.00;;
72319;SDS011;60269;52.502;16.732;2022-07-26T02:03:27;13.30;;;8.73;;
72319;SDS011;60269;52.502;16.732;2022-07-26T02:07:26;15.55;;;8.70;;
72319;SDS011;60269;52.502;16.732;2022-07-26T02:11:33;15.10;;;8.95;;
72319;SDS011;60269;52.502;16.732;2022-07-26T02:15:12;14.55;;;8.30;;
72319;SDS011;60269;52.502;16.732;2022-07-26T02:19:11;16.87;;;9.13;;
72319;SDS011;60269;52.502;16.732;2022-07-26T02:22:50;16.40;;;9.00;;
72319;SDS011;60269;52.502;16.732;2022-07-26T02:26:41;18.13;;;9.00;;
72319;SDS011;60269;52.502;16.732;2022-07-26T02:30:20;20.95;;;9.65;;
72319;SDS011;60269;52.502;16.732;2022-07-26T02:34:19;17.02;;;9.35;;
72319;SDS011;60269;52.502;16.732;2022-07-26T02:38:17;17.40;;;7.83;;
72319;SDS011;60269;52.502;16.732;2022-07-26T02:41:57;14.85;;;8.13;;
72319;SDS011;60269;52.502;16.732;2022-07-26T02:45:57;15.05;;;8.93;;
72319;SDS011;60269;52.502;16.732;2022-07-26T02:49:56;18.33;;;8.18;;
72319;SDS011;60269;52.502;16.732;2022-07-26T02:53:45;17.73;;;7.20;;
72319;SDS011;60269;52.502;16.732;2022-07-26T02:57:37;15.43;;;7.00;;
72319;SDS011;60269;52.502;16.732;2022-07-26T03:01:24;16.15;;;7.93;;
72319;SDS011;60269;52.502;16.732;2022-07-26T03:05:15;16.25;;;7.93;;
72319;SDS011;60269;52.502;16.732;2022-07-26T03:08:55;14.30;;;7.10;;
72319;SDS011;60269;52.502;16.732;2022-07-26T03:12:53;12.93;;;7.25;;
72319;SDS011;60269;52.502;16.732;2022-07-26T03:16:52;15.87;;;7.10;;
72319;SDS011;60269;52.502;16.732;2022-07-26T03:20:31;13.02;;;7.05;;
72319;SDS011;60269;52.502;16.732;2022-07-26T03:24:29;17.08;;;7.65;;
72319;SDS011;60269;52.502;16.732;2022-07-26T03:28:08;13.88;;;7.32;;
72319;SDS011;60269;52.502;16.732;2022-07-26T03:31:59;13.53;;;7.00;;
72319;SDS011;60269;52.502;16.732;2022-07-26T03:35:45;12.57;;;6.50;;
72319;SDS011;60269;52.502;16.732;2022-07-26T03:39:37;12.60;;;6.15;;
72319;SDS011;60269;52.502;16.732;2022-07-26T03:43:24;13.27;;;6.57;;
72319;SDS011;60269;52.502;16.732;2022-07-26T03:47:15;14.07;;;5.72;;
72319;SDS011;60269;52.502;16.732;2022-07-26T03:51:01;13.73;;;6.67;;
72319;SDS011;60269;52.502;16.732;2022-07-26T03:54:45;10.50;;;5.43;;
72319;SDS011;60269;52.502;16.732;2022-07-26T03:58:31;10.25;;;4.88;;
72319;SDS011;60269;52.502;16.732;2022-07-26T04:02:22;11.55;;;5.25;;
72319;SDS011;60269;52.502;16.732;2022-07-26T04:06:01;17.55;;;4.72;;
72319;SDS011;60269;52.502;16.732;2022-07-26T04:10:14;8.73;;;4.00;;
72319;SDS011;60269;52.502;16.732;2022-07-26T04:14:00;10.23;;;3.90;;
72319;SDS011;60269;52.502;16.732;2022-07-26T04:17:46;9.10;;;3.63;;
72319;SDS011;60269;52.502;16.732;2022-07-26T04:21:34;12.32;;;3.88;;
72319;SDS011;60269;52.502;16.732;2022-07-26T04:25:25;9.13;;;3.20;;
72319;SDS011;60269;52.502;16.732;2022-07-26T04:29:15;11.17;;;3.37;;
72319;SDS011;60269;52.502;16.732;2022-07-26T04:33:06;8.90;;;3.17;;
72319;SDS011;60269;52.502;16.732;2022-07-26T04:36:52;9.90;;;3.33;;
72319;SDS011;60269;52.502;16.732;2022-07-26T04:40:44;7.95;;;2.88;;
72319;SDS011;60269;52.502;16.732;2022-07-26T04:44:29;7.20;;;2.20;;
72319;SDS011;60269;52.502;16.732;2022-07-26T04:48:20;7.60;;;2.77;;
72319;SDS011;60269;52.502;16.732;2022-07-26T04:51:59;8.63;;;1.97;;
72319;SDS011;60269;52.502;16.732;2022-07-26T04:55:58;7.85;;;2.15;;
72319;SDS011;60269;52.502;16.732;2022-07-26T04:59:36;6.60;;;2.05;;
72319;SDS011;60269;52.502;16.732;2022-07-26T05:03:48;7.90;;;2.20;;
72319;SDS011;60269;52.502;16.732;2022-07-26T05:07:39;9.00;;;2.00;;
72319;SDS011;60269;52.502;16.732;2022-07-26T05:11:25;7.67;;;1.87;;
72319;SDS011;60269;52.502;16.732;2022-07-26T05:15:09;6.05;;;1.92;;
72319;SDS011;60269;52.502;16.732;2022-07-26T05:18:55;6.97;;;1.90;;
72319;SDS011;60269;52.502;16.732;2022-07-26T05:22:40;7.10;;;1.75;;
72319;SDS011;60269;52.502;16.732;2022-07-26T05:26:38;7.67;;;1.50;;
72319;SDS011;60269;52.502;16.732;2022-07-26T05:30:42;8.17;;;2.00;;
72319;SDS011;60269;52.502;16.732;2022-07-26T05:34:20;5.35;;;1.48;;
72319;SDS011;60269;52.502;16.732;2022-07-26T05:38:18;6.03;;;1.25;;
72319;SDS011;60269;52.502;16.732;2022-07-26T05:42:18;7.65;;;1.30;;
72319;SDS011;60269;52.502;16.732;2022-07-26T05:46:03;5.83;;;1.23;;
72319;SDS011;60269;52.502;16.732;2022-07-26T05:49:55;7.33;;;0.93;;
72319;SDS011;60269;52.502;16.732;2022-07-26T05:53:33;4.88;;;1.17;;
72319;SDS011;60269;52.502;16.732;2022-07-26T05:57:25;8.07;;;1.35;;
72319;SDS011;60269;52.502;16.732;2022-07-26T06:01:03;5.63;;;1.58;;
72319;SDS011;60269;52.502;16.732;2022-07-26T06:04:56;4.77;;;1.33;;
72319;SDS011;60269;52.502;16.732;2022-07-26T06:08:41;5.97;;;1.40;;
72319;SDS011;60269;52.502;16.732;2022-07-26T06:12:27;7.90;;;1.92;;
72319;SDS011;60269;52.502;16.732;2022-07-26T06:16:12;8.77;;;1.75;;
72319;SDS011;60269;52.502;16.732;2022-07-26T06:19:57;8.07;;;2.10;;
72319;SDS011;60269;52.502;16.732;2022-07-26T06:23:43;7.47;;;2.10;;
72319;SDS011;60269;52.502;16.732;2022-07-26T06:27:35;8.23;;;2.03;;
72319;SDS011;60269;52.502;16.732;2022-07-26T06:31:13;7.10;;;2.13;;
72319;SDS011;60269;52.502;16.732;2022-07-26T06:35:12;6.28;;;1.92;;
72319;SDS011;60269;52.502;16.732;2022-07-26T06:38:51;8.25;;;2.60;;
72319;SDS011;60269;52.502;16.732;2022-07-26T06:42:50;8.27;;;2.40;;
72319;SDS011;60269;52.502;16.732;2022-07-26T06:46:34;8.90;;;2.43;;
72319;SDS011;60269;52.502;16.732;2022-07-26T06:50:34;11.10;;;2.92;;
72319;SDS011;60269;52.502;16.732;2022-07-26T06:54:12;8.73;;;2.13;;
72319;SDS011;60269;52.502;16.732;2022-07-26T06:58:11;9.15;;;2.75;;
72319;SDS011;60269;52.502;16.732;2022-07-26T07:01:49;7.73;;;2.73;;
72319;SDS011;60269;52.502;16.732;2022-07-26T07:05:44;9.00;;;2.10;;
72319;SDS011;60269;52.502;16.732;2022-07-26T07:09:23;11.10;;;2.35;;
72319;SDS011;60269;52.502;16.732;2022-07-26T07:13:15;8.40;;;1.80;;
72319;SDS011;60269;52.502;16.732;2022-07-26T07:16:53;6.60;;;1.92;;
72319;SDS011;60269;52.502;16.732;2022-07-26T07:20:59;9.20;;;1.60;;
72319;SDS011;60269;52.502;16.732;2022-07-26T07:25:00;7.27;;;1.90;;
72319;SDS011;60269;52.502;16.732;2022-07-26T07:28:38;8.88;;;1.83;;
72319;SDS011;60269;52.502;16.732;2022-07-26T07:32:32;8.70;;;1.95;;
72319;SDS011;60269;52.502;16.732;2022-07-26T07:36:10;7.45;;;1.45;;
72319;SDS011;60269;52.502;16.732;2022-07-26T07:40:09;7.33;;;2.10;;
72319;SDS011;60269;52.502;16.732;2022-07-26T07:44:08;4.93;;;1.50;;
72319;SDS011;60269;52.502;16.732;2022-07-26T07:47:46;8.38;;;2.00;;
72319;SDS011;60269;52.502;16.732;2022-07-26T07:51:45;5.22;;;1.40;;
72319;SDS011;60269;52.502;16.732;2022-07-26T07:55:44;7.30;;;2.53;;
72319;SDS011;60269;52.502;16.732;2022-07-26T07:59:32;9.10;;;2.10;;
72319;SDS011;60269;52.502;16.732;2022-07-26T08:03:24;9.43;;;2.10;;
72319;SDS011;60269;52.502;16.732;2022-07-26T08:07:16;6.43;;;1.75;;
72319;SDS011;60269;52.502;16.732;2022-07-26T08:11:10;7.55;;;2.10;;
72319;SDS011;60269;52.502;16.732;2022-07-26T08:14:55;9.00;;;1.67;;
72319;SDS011;60269;52.502;16.732;2022-07-26T08:18:45;7.13;;;1.60;;
72319;SDS011;60269;52.502;16.732;2022-07-26T08:22:35;5.43;;;1.73;;
72319;SDS011;60269;52.502;16.732;2022-07-26T08:26:27;10.35;;;2.10;;
72319;SDS011;60269;52.502;16.732;2022-07-26T08:30:05;8.05;;;1.95;;
72319;SDS011;60269;52.502;16.732;2022-07-26T08:33:57;7.22;;;2.00;;
72319;SDS011;60269;52.502;16.732;2022-07-26T08:37:35;13.20;;;2.40;;
72319;SDS011;60269;52.502;16.732;2022-07-26T08:41:27;6.27;;;1.77;;
72319;SDS011;60269;52.502;16.732;2022-07-26T08:45:12;13.27;;;2.70;;
72319;SDS011;60269;52.502;16.732;2022-07-26T08:49:05;9.70;;;2.03;;
72319;SDS011;60269;52.502;16.732;2022-07-26T08:52:45;6.43;;;2.00;;
72319;SDS011;60269;52.502;16.732;2022-07-26T08:56:39;9.30;;;2.17;;
72319;SDS011;60269;52.502;16.732;2022-07-26T09:00:33;5.87;;;1.73;;
72319;SDS011;60269;52.502;16.732;2022-07-26T09:04:32;9.45;;;1.60;;
72319;SDS011;60269;52.502;16.732;2022-07-26T09:08:28;7.53;;;2.30;;
72319;SDS011;60269;52.502;16.732;2022-07-26T09:12:21;8.65;;;1.90;;
72319;SDS011;60269;52.502;16.732;2022-07-26T09:16:09;7.93;;;1.80;;
72319;SDS011;60269;52.502;16.732;2022-07-26T09:20:03;9.63;;;2.57;;
72319;SDS011;60269;52.502;16.732;2022-07-26T09:23:52;7.53;;;1.92;;
72319;SDS011;60269;52.502;16.732;2022-07-26T09:27:37;6.38;;;2.08;;
72319;SDS011;60269;52.502;16.732;2022-07-26T09:31:22;6.03;;;1.90;;
72319;SDS011;60269;52.502;16.732;2022-07-26T09:35:14;7.30;;;1.77;;
72319;SDS011;60269;52.502;16.732;2022-07-26T09:39:18;5.67;;;1.40;;
72319;SDS011;60269;52.502;16.732;2022-07-26T09:43:11;9.05;;;1.65;;
72319;SDS011;60269;52.502;16.732;2022-07-26T09:47:01;9.70;;;1.67;;
72319;SDS011;60269;52.502;16.732;2022-07-26T09:50:53;6.97;;;1.60;;
72319;SDS011;60269;52.502;16.732;2022-07-26T09:54:32;5.63;;;1.63;;
72319;SDS011;60269;52.502;16.732;2022-07-26T09:58:25;8.10;;;2.00;;
72319;SDS011;60269;52.502;16.732;2022-07-26T10:02:10;6.70;;;1.60;;
72319;SDS011;60269;52.502;16.732;2022-07-26T10:06:03;7.80;;;1.67;;
72319;SDS011;60269;52.502;16.732;2022-07-26T10:09:42;6.78;;;2.05;;
72319;SDS011;60269;52.502;16.732;2022-07-26T10:13:46;8.37;;;1.63;;
72319;SDS011;60269;52.502;16.732;2022-07-26T10:17:48;9.13;;;2.00;;
72319;SDS011;60269;52.502;16.732;2022-07-26T10:21:27;4.60;;;1.33;;
72319;SDS011;60269;52.502;16.732;2022-07-26T10:33:09;6.23;;;1.70;;
72319;SDS011;60269;52.502;16.732;2022-07-26T10:37:00;6.33;;;1.93;;
72319;SDS011;60269;52.502;16.732;2022-07-26T10:40:58;4.22;;;1.58;;
72319;SDS011;60269;52.502;16.732;2022-07-26T10:44:47;6.82;;;1.70;;
72319;SDS011;60269;52.502;16.732;2022-07-26T10:49:12;5.70;;;1.48;;
72319;SDS011;60269;52.502;16.732;2022-07-26T10:52:57;4.53;;;1.13;;
72319;SDS011;60269;52.502;16.732;2022-07-26T10:56:49;9.80;;;1.80;;
72319;SDS011;60269;52.502;16.732;2022-07-26T11:00:34;6.55;;;1.58;;
72319;SDS011;60269;52.502;16.732;2022-07-26T11:04:26;8.57;;;1.88;;
72319;SDS011;60269;52.502;16.732;2022-07-26T11:08:05;4.75;;;1.73;;
72319;SDS011;60269;52.502;16.732;2022-07-26T11:12:13;4.47;;;1.30;;
72319;SDS011;60269;52.502;16.732;2022-07-26T11:16:03;7.23;;;1.60;;
72319;SDS011;60269;52.502;16.732;2022-07-26T11:19:49;4.60;;;1.45;;
72319;SDS011;60269;52.502;16.732;2022-07-26T11:23:35;5.60;;;0.90;;
72319;SDS011;60269;52.502;16.732;2022-07-26T11:27:35;9.38;;;1.40;;
72319;SDS011;60269;52.502;16.732;2022-07-26T11:31:14;8.83;;;1.20;;
72319;SDS011;60269;52.502;16.732;2022-07-26T11:35:27;4.73;;;0.87;;
72319;SDS011;60269;52.502;16.732;2022-07-26T11:39:12;6.82;;;1.33;;
72319;SDS011;60269;52.502;16.732;2022-07-26T11:43:12;7.43;;;1.25;;
72319;SDS011;60269;52.502;16.732;2022-07-26T11:46:50;4.15;;;0.90;;
72319;SDS011;60269;52.502;16.732;2022-07-26T11:50:49;5.53;;;1.23;;
72319;SDS011;60269;52.502;16.732;2022-07-26T11:54:30;5.67;;;1.10;;
72319;SDS011;60269;52.502;16.732;2022-07-26T11:58:43;11.63;;;1.73;;
72319;SDS011;60269;52.502;16.732;2022-07-26T12:02:23;4.75;;;1.40;;
72319;SDS011;60269;52.502;16.732;2022-07-26T12:06:17;6.15;;;1.33;;
72319;SDS011;60269;52.502;16.732;2022-07-26T12:09:56;6.00;;;1.53;;
72319;SDS011;60269;52.502;16.732;2022-07-26T12:13:56;4.93;;;1.27;;
72319;SDS011;60269;52.502;16.732;2022-07-26T12:17:35;4.22;;;1.48;;
72319;SDS011;60269;52.502;16.732;2022-07-26T12:21:41;4.20;;;0.80;;
72319;SDS011;60269;52.502;16.732;2022-07-26T12:25:26;6.10;;;1.35;;
72319;SDS011;60269;52.502;16.732;2022-07-26T12:29:34;5.53;;;1.47;;
72319;SDS011;60269;52.502;16.732;2022-07-26T12:33:13;6.47;;;1.27;;
72319;SDS011;60269;52.502;16.732;2022-07-26T12:37:13;5.85;;;1.33;;
72319;SDS011;60269;52.502;16.732;2022-07-26T12:41:34;12.27;;;1.60;;
72319;SDS011;60269;52.502;16.732;2022-07-26T12:45:35;4.97;;;1.20;;
72319;SDS011;60269;52.502;16.732;2022-07-26T12:49:15;26.90;;;2.23;;
72319;SDS011;60269;52.502;16.732;2022-07-26T12:53:14;5.10;;;1.17;;
72319;SDS011;60269;52.502;16.732;2022-07-26T12:57:13;6.13;;;1.30;;
72319;SDS011;60269;52.502;16.732;2022-07-26T13:00:51;4.75;;;1.17;;
72319;SDS011;60269;52.502;16.732;2022-07-26T13:04:50;5.03;;;1.33;;
72319;SDS011;60269;52.502;16.732;2022-07-26T13:08:31;3.47;;;0.90;;
72319;SDS011;60269;52.502;16.732;2022-07-26T13:12:30;10.07;;;1.57;;
72319;SDS011;60269;52.502;16.732;2022-07-26T13:16:29;6.78;;;1.30;;
72319;SDS011;60269;52.502;16.732;2022-07-26T13:20:07;8.95;;;1.70;;
72319;SDS011;60269;52.502;16.732;2022-07-26T13:24:07;4.50;;;1.20;;
72319;SDS011;60269;52.502;16.732;2022-07-26T13:27:57;23.37;;;2.47;;
72319;SDS011;60269;52.502;16.732;2022-07-26T13:31:42;6.00;;;0.83;;
72319;SDS011;60269;52.502;16.732;2022-07-26T13:35:27;3.88;;;0.70;;
72319;SDS011;60269;52.502;16.732;2022-07-26T13:39:13;7.95;;;1.30;;
72319;SDS011;60269;52.502;16.732;2022-07-26T13:42:58;7.05;;;0.98;;
72319;SDS011;60269;52.502;16.732;2022-07-26T13:46:50;4.43;;;1.20;;
72319;SDS011;60269;52.502;16.732;2022-07-26T13:50:35;9.17;;;1.47;;
72319;SDS011;60269;52.502;16.732;2022-07-26T13:54:21;8.25;;;1.17;;
72319;SDS011;60269;52.502;16.732;2022-07-26T13:58:08;7.38;;;1.40;;
72319;SDS011;60269;52.502;16.732;2022-07-26T14:02:00;6.15;;;0.90;;
72319;SDS011;60269;52.502;16.732;2022-07-26T14:05:39;4.17;;;1.00;;
72319;SDS011;60269;52.502;16.732;2022-07-26T14:09:17;4.17;;;0.70;;
72319;SDS011;60269;52.502;16.732;2022-07-26T14:13:11;4.32;;;1.27;;
72319;SDS011;60269;52.502;16.732;2022-07-26T14:16:49;6.32;;;1.02;;
72319;SDS011;60269;52.502;16.732;2022-07-26T14:20:41;9.02;;;1.92;;
72319;SDS011;60269;52.502;16.732;2022-07-26T14:24:27;3.23;;;1.03;;
72319;SDS011;60269;52.502;16.732;2022-07-26T14:28:19;3.50;;;0.90;;
72319;SDS011;60269;52.502;16.732;2022-07-26T14:32:04;3.25;;;0.90;;
72319;SDS011;60269;52.502;16.732;2022-07-26T14:35:59;6.72;;;0.88;;
72319;SDS011;60269;52.502;16.732;2022-07-26T14:39:37;3.85;;;0.90;;
72319;SDS011;60269;52.502;16.732;2022-07-26T14:43:31;7.70;;;1.67;;
72319;SDS011;60269;52.502;16.732;2022-07-26T14:47:16;5.17;;;0.73;;
72319;SDS011;60269;52.502;16.732;2022-07-26T14:51:01;5.85;;;0.77;;
72319;SDS011;60269;52.502;16.732;2022-07-26T14:54:47;6.20;;;1.05;;
72319;SDS011;60269;52.502;16.732;2022-07-26T14:58:32;3.75;;;0.90;;
72319;SDS011;60269;52.502;16.732;2022-07-26T15:02:17;4.23;;;1.17;;
72319;SDS011;60269;52.502;16.732;2022-07-26T15:06:09;2.67;;;0.87;;
72319;SDS011;60269;52.502;16.732;2022-07-26T15:09:47;9.30;;;0.95;;
72319;SDS011;60269;52.502;16.732;2022-07-26T15:13:46;3.25;;;0.60;;
72319;SDS011;60269;52.502;16.732;2022-07-26T15:17:51;2.63;;;0.70;;
72319;SDS011;60269;52.502;16.732;2022-07-26T15:21:50;3.23;;;0.80;;
72319;SDS011;60269;52.502;16.732;2022-07-26T15:25:30;5.03;;;1.23;;
72319;SDS011;60269;52.502;16.732;2022-07-26T15:29:29;5.55;;;0.80;;
72319;SDS011;60269;52.502;16.732;2022-07-26T15:33:08;5.15;;;1.08;;
72319;SDS011;60269;52.502;16.732;2022-07-26T15:37:07;3.45;;;1.20;;
72319;SDS011;60269;52.502;16.732;2022-07-26T15:40:46;2.43;;;0.70;;
72319;SDS011;60269;52.502;16.732;2022-07-26T15:44:38;2.73;;;0.80;;
72319;SDS011;60269;52.502;16.732;2022-07-26T15:48:16;11.20;;;0.90;;
72319;SDS011;60269;52.502;16.732;2022-07-26T15:52:08;4.75;;;0.95;;
72319;SDS011;60269;52.502;16.732;2022-07-26T15:55:48;3.53;;;1.40;;
72319;SDS011;60269;52.502;16.732;2022-07-26T15:59:47;6.47;;;1.23;;
72319;SDS011;60269;52.502;16.732;2022-07-26T16:03:55;5.13;;;1.20;;
72319;SDS011;60269;52.502;16.732;2022-07-26T16:07:33;3.50;;;1.17;;
72319;SDS011;60269;52.502;16.732;2022-07-26T16:11:32;3.15;;;1.00;;
72319;SDS011;60269;52.502;16.732;2022-07-26T16:15:17;3.80;;;0.80;;
72319;SDS011;60269;52.502;16.732;2022-07-26T16:19:09;5.60;;;0.70;;
72319;SDS011;60269;52.502;16.732;2022-07-26T16:22:54;6.27;;;0.67;;
72319;SDS011;60269;52.502;16.732;2022-07-26T16:26:46;6.57;;;0.98;;
72319;SDS011;60269;52.502;16.732;2022-07-26T16:30:24;4.70;;;1.48;;
72319;SDS011;60269;52.502;16.732;2022-07-26T16:34:16;6.03;;;0.98;;
72319;SDS011;60269;52.502;16.732;2022-07-26T16:38:01;6.77;;;0.60;;
72319;SDS011;60269;52.502;16.732;2022-07-26T16:42:00;5.67;;;0.90;;
72319;SDS011;60269;52.502;16.732;2022-07-26T16:45:38;5.53;;;0.85;;
72319;SDS011;60269;52.502;16.732;2022-07-26T16:49:37;3.15;;;0.60;;
72319;SDS011;60269;52.502;16.732;2022-07-26T16:53:16;6.03;;;0.73;;
72319;SDS011;60269;52.502;16.732;2022-07-26T16:57:14;3.40;;;0.77;;
72319;SDS011;60269;52.502;16.732;2022-07-26T17:00:52;2.90;;;0.67;;
72319;SDS011;60269;52.502;16.732;2022-07-26T17:04:51;3.55;;;0.60;;
72319;SDS011;60269;52.502;16.732;2022-07-26T17:08:31;4.18;;;0.60;;
72319;SDS011;60269;52.502;16.732;2022-07-26T17:12:22;3.30;;;0.52;;
72319;SDS011;60269;52.502;16.732;2022-07-26T17:16:01;4.23;;;0.90;;
72319;SDS011;60269;52.502;16.732;2022-07-26T17:20:08;3.37;;;0.70;;
72319;SDS011;60269;52.502;16.732;2022-07-26T17:24:07;3.53;;;0.80;;
72319;SDS011;60269;52.502;16.732;2022-07-26T17:27:52;6.75;;;0.95;;
72319;SDS011;60269;52.502;16.732;2022-07-26T17:31:44;3.53;;;0.80;;
72319;SDS011;60269;52.502;16.732;2022-07-26T17:35:29;4.17;;;0.70;;
72319;SDS011;60269;52.502;16.732;2022-07-26T17:39:14;2.50;;;0.50;;
72319;SDS011;60269;52.502;16.732;2022-07-26T17:42:59;3.25;;;0.73;;
72319;SDS011;60269;52.502;16.732;2022-07-26T17:46:44;5.72;;;0.50;;
72319;SDS011;60269;52.502;16.732;2022-07-26T17:50:29;3.35;;;0.50;;
72319;SDS011;60269;52.502;16.732;2022-07-26T17:54:24;2.80;;;0.50;;
72319;SDS011;60269;52.502;16.732;2022-07-26T17:58:03;6.30;;;0.60;;
72319;SDS011;60269;52.502;16.732;2022-07-26T18:01:55;3.22;;;0.70;;
72319;SDS011;60269;52.502;16.732;2022-07-26T18:05:40;3.60;;;0.60;;
72319;SDS011;60269;52.502;16.732;2022-07-26T18:09:25;1.75;;;0.50;;
72319;SDS011;60269;52.502;16.732;2022-07-26T18:13:10;3.97;;;0.60;;
72319;SDS011;60269;52.502;16.732;2022-07-26T18:16:56;6.30;;;0.80;;
72319;SDS011;60269;52.502;16.732;2022-07-26T18:20:41;3.42;;;0.70;;
72319;SDS011;60269;52.502;16.732;2022-07-26T18:24:40;5.10;;;0.60;;
72319;SDS011;60269;52.502;16.732;2022-07-26T18:28:18;4.47;;;0.95;;
72319;SDS011;60269;52.502;16.732;2022-07-26T18:32:17;4.70;;;1.30;;
72319;SDS011;60269;52.502;16.732;2022-07-26T18:36:16;3.80;;;0.73;;
72319;SDS011;60269;52.502;16.732;2022-07-26T18:39:54;5.05;;;0.90;;
72319;SDS011;60269;52.502;16.732;2022-07-26T18:43:53;4.50;;;0.70;;
72319;SDS011;60269;52.502;16.732;2022-07-26T18:47:31;4.43;;;0.80;;
72319;SDS011;60269;52.502;16.732;2022-07-26T18:51:23;3.80;;;1.10;;
72319;SDS011;60269;52.502;16.732;2022-07-26T18:55:05;4.83;;;1.10;;
72319;SDS011;60269;52.502;16.732;2022-07-26T18:58:58;6.03;;;0.80;;
72319;SDS011;60269;52.502;16.732;2022-07-26T19:02:43;8.00;;;1.15;;
72319;SDS011;60269;52.502;16.732;2022-07-26T19:06:37;3.88;;;0.85;;
72319;SDS011;60269;52.502;16.732;2022-07-26T19:10:26;5.43;;;1.50;;
72319;SDS011;60269;52.502;16.732;2022-07-26T19:14:18;4.67;;;0.93;;
72319;SDS011;60269;52.502;16.732;2022-07-26T19:18:07;3.13;;;0.77;;
72319;SDS011;60269;52.502;16.732;2022-07-26T19:22:00;5.75;;;1.13;;
72319;SDS011;60269;52.502;16.732;2022-07-26T19:25:39;7.00;;;1.25;;
72319;SDS011;60269;52.502;16.732;2022-07-26T19:29:31;6.97;;;1.30;;
72319;SDS011;60269;52.502;16.732;2022-07-26T19:33:09;8.87;;;1.00;;
72319;SDS011;60269;52.502;16.732;2022-07-26T19:37:02;4.40;;;1.33;;
72319;SDS011;60269;52.502;16.732;2022-07-26T19:40:48;4.30;;;1.13;;
72319;SDS011;60269;52.502;16.732;2022-07-26T19:44:40;7.22;;;1.35;;
72319;SDS011;60269;52.502;16.732;2022-07-26T19:48:18;6.20;;;1.60;;
72319;SDS011;60269;52.502;16.732;2022-07-26T19:52:10;6.63;;;1.50;;
72319;SDS011;60269;52.502;16.732;2022-07-26T19:55:55;6.97;;;1.60;;
72319;SDS011;60269;52.502;16.732;2022-07-26T19:59:41;7.18;;;1.90;;
72319;SDS011;60269;52.502;16.732;2022-07-26T20:03:27;5.05;;;1.50;;
72319;SDS011;60269;52.502;16.732;2022-07-26T20:07:26;9.27;;;2.10;;
72319;SDS011;60269;52.502;16.732;2022-07-26T20:11:05;8.00;;;2.13;;
72319;SDS011;60269;52.502;16.732;2022-07-26T20:14:57;8.52;;;1.88;;
72319;SDS011;60269;52.502;16.732;2022-07-26T20:18:36;7.90;;;2.38;;
72319;SDS011;60269;52.502;16.732;2022-07-26T20:22:34;6.13;;;1.80;;
72319;SDS011;60269;52.502;16.732;2022-07-26T20:26:33;9.37;;;2.17;;
72319;SDS011;60269;52.502;16.732;2022-07-26T20:30:18;5.32;;;2.13;;
72319;SDS011;60269;52.502;16.732;2022-07-26T20:34:10;5.70;;;2.08;;
72319;SDS011;60269;52.502;16.732;2022-07-26T20:37:48;8.65;;;2.40;;
72319;SDS011;60269;52.502;16.732;2022-07-26T20:41:40;6.65;;;2.00;;
72319;SDS011;60269;52.502;16.732;2022-07-26T20:45:26;6.70;;;2.43;;
72319;SDS011;60269;52.502;16.732;2022-07-26T20:49:11;8.23;;;2.53;;
72319;SDS011;60269;52.502;16.732;2022-07-26T20:52:56;8.40;;;2.50;;
72319;SDS011;60269;52.502;16.732;2022-07-26T20:56:48;7.78;;;2.45;;
72319;SDS011;60269;52.502;16.732;2022-07-26T21:00:26;7.95;;;2.55;;
72319;SDS011;60269;52.502;16.732;2022-07-26T21:04:18;7.53;;;2.70;;
72319;SDS011;60269;52.502;16.732;2022-07-26T21:08:03;7.10;;;2.67;;
72319;SDS011;60269;52.502;16.732;2022-07-26T21:11:55;7.90;;;3.13;;
72319;SDS011;60269;52.502;16.732;2022-07-26T21:15:33;7.53;;;2.83;;
72319;SDS011;60269;52.502;16.732;2022-07-26T21:19:25;10.20;;;3.30;;
72319;SDS011;60269;52.502;16.732;2022-07-26T21:23:03;9.07;;;3.33;;
72319;SDS011;60269;52.502;16.732;2022-07-26T21:26:57;8.25;;;3.38;;
72319;SDS011;60269;52.502;16.732;2022-07-26T21:30:42;8.18;;;3.70;;
72319;SDS011;60269;52.502;16.732;2022-07-26T21:34:34;9.32;;;3.40;;
72319;SDS011;60269;52.502;16.732;2022-07-26T21:38:19;7.57;;;3.60;;
72319;SDS011;60269;52.502;16.732;2022-07-26T21:42:13;10.03;;;3.20;;
72319;SDS011;60269;52.502;16.732;2022-07-26T21:45:51;8.48;;;3.28;;
72319;SDS011;60269;52.502;16.732;2022-07-26T21:49:49;8.15;;;3.28;;
72319;SDS011;60269;52.502;16.732;2022-07-26T21:53:34;7.60;;;3.42;;
72319;SDS011;60269;52.502;16.732;2022-07-26T21:57:33;7.78;;;3.55;;
72319;SDS011;60269;52.502;16.732;2022-07-26T22:01:34;11.97;;;3.87;;
72319;SDS011;60269;52.502;16.732;2022-07-26T22:05:13;8.38;;;3.58;;
72319;SDS011;60269;52.502;16.732;2022-07-26T22:09:26;8.50;;;3.30;;
72319;SDS011;60269;52.502;16.732;2022-07-26T22:13:06;11.50;;;4.05;;
72319;SDS011;60269;52.502;16.732;2022-07-26T22:17:04;8.88;;;3.70;;
72319;SDS011;60269;52.502;16.732;2022-07-26T22:20:50;10.93;;;4.30;;
72319;SDS011;60269;52.502;16.732;2022-07-26T22:24:42;8.05;;;3.88;;
72319;SDS011;60269;52.502;16.732;2022-07-26T22:28:21;8.35;;;3.42;;
72319;SDS011;60269;52.502;16.732;2022-07-26T22:32:12;13.48;;;4.05;;
72319;SDS011;60269;52.502;16.732;2022-07-26T22:35:58;8.52;;;3.45;;
72319;SDS011;60269;52.502;16.732;2022-07-26T22:39:49;8.90;;;3.27;;
72319;SDS011;60269;52.502;16.732;2022-07-26T22:43:27;8.00;;;3.17;;